Time;durP1;ratioP1;P1;durP2;ratioP2;P2;SDS_P1;SDS_P2;PMS_P1;PMS_P2;Temp;Humidity;BMP_temperature;BMP_pressure;BME280_temperature;BME280_humidity;BME280_pressure;Samples;Min_cycle;Max_cycle;Signal;HPM_P1;HPM_P2
2023/12/20 00:01:32;;;;;;;12.25;2.17;;;7.20;91.40;;;;;;5092388;27;20042;-90
2023/12/20 00:03:58;;;;;;;8.23;1.45;;;7.30;91.40;;;;;;5093802;27;20035;-91
2023/12/20 00:06:23;;;;;;;7.82;1.92;;;7.20;91.40;;;;;;5091852;27;20061;-91
2023/12/20 00:08:49;;;;;;;7.38;2.15;;;7.20;91.40;;;;;;5094483;27;20517;-91
2023/12/20 00:11:15;;;;;;;12.23;2.35;;;7.20;91.40;;;;;;5092078;27;20119;-91
2023/12/20 00:13:40;;;;;;;7.47;1.77;;;7.20;91.30;;;;;;5088031;28;20036;-91
2023/12/20 00:16:06;;;;;;;13.07;1.83;;;7.20;91.30;;;;;;5092133;28;20040;-91
2023/12/20 00:18:31;;;;;;;12.68;2.35;;;7.20;91.30;;;;;;5092639;27;20031;-91
2023/12/20 00:20:57;;;;;;;8.77;1.70;;;7.20;91.30;;;;;;5108296;27;20043;-91
2023/12/20 00:23:23;;;;;;;6.00;1.90;;;7.20;91.20;;;;;;5089266;27;20126;-91
2023/12/20 00:25:49;;;;;;;12.13;2.03;;;7.20;91.20;;;;;;5091446;27;20046;-91
2023/12/20 00:28:14;;;;;;;11.30;2.30;;;7.20;91.20;;;;;;5090514;28;20085;-91
2023/12/20 00:30:40;;;;;;;7.80;1.85;;;7.20;91.20;;;;;;5090865;27;20034;-91
2023/12/20 00:33:06;;;;;;;8.68;1.48;;;7.20;91.20;;;;;;5088297;27;20031;-91
2023/12/20 00:35:31;;;;;;;9.35;1.70;;;7.20;91.20;;;;;;5106863;28;20031;-91
2023/12/20 00:37:58;;;;;;;7.65;1.50;;;7.20;91.20;;;;;;5091153;27;20089;-91
2023/12/20 00:40:24;;;;;;;8.18;1.98;;;7.20;91.20;;;;;;5106178;27;20034;-91
2023/12/20 00:42:50;;;;;;;4.90;1.00;;;7.20;91.20;;;;;;5089947;28;20032;-91
2023/12/20 00:45:15;;;;;;;9.90;2.30;;;7.20;91.20;;;;;;5109499;27;20461;-91
2023/12/20 00:47:41;;;;;;;9.65;1.65;;;7.30;91.20;;;;;;5091562;27;20146;-91
2023/12/20 00:50:07;;;;;;;5.40;1.60;;;7.20;91.20;;;;;;5110443;27;20165;-91
2023/12/20 00:52:32;;;;;;;6.63;1.58;;;7.20;91.20;;;;;;5104757;27;20032;-91
2023/12/20 00:54:58;;;;;;;15.20;3.15;;;7.20;91.10;;;;;;5093751;27;20110;-91
2023/12/20 00:57:23;;;;;;;5.82;1.52;;;7.20;91.10;;;;;;5086761;28;20027;-91
2023/12/20 00:59:49;;;;;;;10.65;2.28;;;7.30;91.10;;;;;;5093720;27;20096;-91
2023/12/20 01:02:15;;;;;;;10.00;2.47;;;7.10;91.00;;;;;;5108706;27;20114;-91
2023/12/20 01:04:40;;;;;;;14.60;2.00;;;7.10;91.00;;;;;;5084863;27;20122;-91
2023/12/20 01:07:06;;;;;;;14.15;2.38;;;7.10;91.00;;;;;;5086571;27;20039;-91
2023/12/20 01:09:31;;;;;;;9.27;1.90;;;7.10;91.10;;;;;;5089969;27;20037;-91
2023/12/20 01:11:57;;;;;;;9.70;2.30;;;7.10;91.10;;;;;;5107524;28;20070;-91
2023/12/20 01:14:23;;;;;;;9.93;1.88;;;7.10;91.10;;;;;;5106033;28;20024;-91
2023/12/20 01:16:48;;;;;;;9.60;1.60;;;7.10;91.10;;;;;;5091073;28;20443;-91
2023/12/20 01:19:14;;;;;;;13.02;2.20;;;7.10;91.10;;;;;;5092734;27;20031;-90
2023/12/20 01:21:40;;;;;;;6.63;1.60;;;7.10;91.10;;;;;;5089030;28;20095;-91
2023/12/20 01:24:06;;;;;;;14.27;2.53;;;7.10;91.10;;;;;;5075971;28;20035;-91
2023/12/20 01:26:31;;;;;;;9.75;2.05;;;7.10;91.10;;;;;;5094801;28;20034;-91
2023/12/20 01:28:57;;;;;;;14.02;3.13;;;7.10;91.10;;;;;;5107134;28;20075;-91
2023/12/20 01:31:23;;;;;;;13.18;2.65;;;7.10;91.20;;;;;;5088577;28;20443;-91
2023/12/20 01:33:48;;;;;;;12.82;1.85;;;7.10;91.10;;;;;;5088752;28;20064;-91
2023/12/20 01:36:14;;;;;;;11.27;2.67;;;7.00;91.10;;;;;;5095411;28;20023;-91
2023/12/20 01:38:40;;;;;;;9.32;2.25;;;7.10;91.10;;;;;;5086828;28;20047;-91
2023/12/20 01:41:05;;;;;;;10.02;1.73;;;7.10;91.10;;;;;;5108290;28;20096;-91
2023/12/20 01:43:31;;;;;;;16.50;2.67;;;7.10;91.20;;;;;;5089492;28;20035;-91
2023/12/20 01:45:58;;;;;;;9.13;2.00;;;7.00;91.10;;;;;;5093008;27;20027;-91
2023/12/20 01:48:24;;;;;;;11.80;2.03;;;7.10;91.20;;;;;;5086357;28;20579;-91
2023/12/20 01:50:50;;;;;;;10.68;2.40;;;7.10;91.20;;;;;;5092329;27;20075;-91
2023/12/20 01:53:18;;;;;;;9.57;2.22;;;7.10;91.20;;;;;;5091198;27;20508;-91
2023/12/20 01:55:44;;;;;;;11.48;2.17;;;7.70;91.30;;;;;;5111902;27;20403;-91
2023/12/20 01:58:12;;;;;;;11.57;2.33;;;7.10;91.20;;;;;;5095198;27;20168;-91
2023/12/20 02:00:37;;;;;;;10.07;2.08;;;7.10;91.20;;;;;;5106941;27;20035;-91
2023/12/20 02:03:04;;;;;;;15.48;2.47;;;7.00;91.20;;;;;;5112232;28;20502;-91
2023/12/20 02:05:31;;;;;;;11.55;2.63;;;7.10;91.20;;;;;;5094604;27;20035;-91
2023/12/20 02:07:57;;;;;;;11.23;2.33;;;7.10;91.20;;;;;;5099386;28;20070;-91
2023/12/20 02:10:24;;;;;;;15.93;3.10;;;7.10;91.20;;;;;;5095142;27;20055;-91
2023/12/20 02:12:50;;;;;;;8.85;2.35;;;7.10;91.20;;;;;;5095862;27;20490;-91
2023/12/20 02:15:15;;;;;;;16.17;2.92;;;7.10;91.30;;;;;;5102179;27;20046;-90
2023/12/20 02:17:41;;;;;;;15.18;2.33;;;7.10;91.30;;;;;;5120672;27;20038;-91
2023/12/20 02:20:07;;;;;;;13.85;2.08;;;7.10;91.30;;;;;;5093502;27;20031;-91
2023/12/20 02:22:33;;;;;;;9.65;1.90;;;7.10;91.30;;;;;;5077044;27;20030;-88
2023/12/20 02:24:58;;;;;;;14.48;3.22;;;7.10;91.30;;;;;;5092678;27;20118;-88
2023/12/20 02:27:24;;;;;;;15.52;2.55;;;7.20;91.40;;;;;;5109459;27;20106;-88
2023/12/20 02:29:50;;;;;;;12.35;2.60;;;7.20;91.40;;;;;;5090832;27;20557;-91
2023/12/20 02:32:20;;;;;;;17.85;2.90;;;7.20;91.40;;;;;;5092853;27;20054;-89
2023/12/20 02:34:48;;;;;;;11.63;3.15;;;7.20;91.40;;;;;;5091979;27;20083;-87
2023/12/20 02:37:13;;;;;;;16.52;3.47;;;7.20;91.40;;;;;;5093001;28;20089;-88
2023/12/20 02:39:39;;;;;;;14.05;3.40;;;7.20;91.40;;;;;;5093804;28;20554;-88
2023/12/20 02:42:04;;;;;;;18.27;4.32;;;7.20;91.40;;;;;;5093512;28;20042;-88
2023/12/20 02:44:30;;;;;;;14.80;2.53;;;7.20;91.60;;;;;;5105830;28;20031;-88
2023/12/20 02:46:56;;;;;;;14.48;3.05;;;7.20;91.40;;;;;;5095125;28;20123;-90
2023/12/20 02:49:21;;;;;;;15.73;3.13;;;7.20;91.40;;;;;;5095578;28;20031;-90
2023/12/20 02:51:47;;;;;;;17.63;3.83;;;7.20;91.40;;;;;;5092119;28;20174;-89
2023/12/20 02:54:12;;;;;;;15.32;3.55;;;7.20;91.40;;;;;;5090731;28;20383;-89
2023/12/20 02:56:38;;;;;;;18.45;3.30;;;7.20;91.40;;;;;;5092504;28;20062;-88
2023/12/20 02:59:08;;;;;;;15.15;3.00;;;7.30;91.40;;;;;;5089415;28;20031;-88
2023/12/20 03:01:34;;;;;;;12.43;2.25;;;7.30;91.40;;;;;;5090164;28;20032;-89
2023/12/20 03:04:00;;;;;;;19.88;3.97;;;7.30;91.50;;;;;;5092478;28;20059;-91
2023/12/20 03:06:25;;;;;;;13.10;2.72;;;7.30;91.40;;;;;;5092845;28;20067;-89
2023/12/20 03:08:51;;;;;;;17.77;2.95;;;7.30;91.50;;;;;;5092518;28;20038;-89
2023/12/20 03:11:17;;;;;;;15.20;3.20;;;7.30;91.40;;;;;;5113312;28;20122;-88
2023/12/20 03:13:42;;;;;;;20.55;4.57;;;7.40;91.40;;;;;;5120034;28;20038;-88
2023/12/20 03:16:12;;;;;;;19.25;3.55;;;7.30;91.40;;;;;;5097149;28;20039;-88
2023/12/20 03:18:38;;;;;;;16.33;3.45;;;7.30;91.40;;;;;;5088846;28;20039;-88
2023/12/20 03:21:05;;;;;;;13.90;3.08;;;7.30;91.30;;;;;;5091245;28;20157;-88
2023/12/20 03:23:32;;;;;;;18.60;3.60;;;7.40;91.30;;;;;;5108570;28;20035;-88
2023/12/20 03:25:58;;;;;;;15.43;3.20;;;7.30;91.30;;;;;;5091442;28;20067;-88
2023/12/20 03:28:24;;;;;;;21.25;4.43;;;7.30;91.30;;;;;;5093143;28;20092;-88
2023/12/20 03:30:49;;;;;;;25.58;4.18;;;7.30;91.30;;;;;;5090184;28;20036;-88
2023/12/20 03:33:15;;;;;;;22.67;4.07;;;7.30;91.30;;;;;;5090921;28;20110;-88
2023/12/20 03:35:41;;;;;;;24.23;3.85;;;7.40;91.30;;;;;;5087634;28;20047;-88
2023/12/20 03:38:07;;;;;;;17.17;3.72;;;7.40;91.30;;;;;;5064750;27;1192548;-88
2023/12/20 03:40:32;;;;;;;15.95;3.10;;;7.30;91.30;;;;;;5093690;27;20042;-88
2023/12/20 03:42:58;;;;;;;20.38;3.65;;;7.40;91.30;;;;;;5090631;27;20041;-88
2023/12/20 03:45:23;;;;;;;18.27;3.40;;;7.40;91.30;;;;;;5092629;27;20031;-88
2023/12/20 03:47:49;;;;;;;12.02;3.03;;;7.40;91.30;;;;;;5091811;27;20032;-89
2023/12/20 03:50:15;;;;;;;20.85;4.70;;;7.40;91.20;;;;;;5110647;28;20042;-87
2023/12/20 03:52:41;;;;;;;16.02;3.35;;;7.40;91.20;;;;;;5092932;28;20035;-88
2023/12/20 03:55:06;;;;;;;22.20;4.53;;;7.40;91.20;;;;;;5090271;27;20042;-88
2023/12/20 03:57:32;;;;;;;19.95;4.05;;;7.40;91.10;;;;;;5090995;27;20090;-87
2023/12/20 03:59:57;;;;;;;24.90;4.70;;;7.40;91.10;;;;;;5086112;28;20035;-88
2023/12/20 04:02:23;;;;;;;23.63;4.15;;;7.40;91.10;;;;;;5092524;27;20031;-88
2023/12/20 04:04:49;;;;;;;24.55;5.72;;;7.50;91.10;;;;;;5092426;27;20126;-88
2023/12/20 04:07:14;;;;;;;16.92;4.43;;;7.40;91.10;;;;;;5090683;27;20027;-88
2023/12/20 04:09:41;;;;;;;17.73;3.42;;;7.40;91.10;;;;;;5097745;27;20068;-87
2023/12/20 04:12:06;;;;;;;20.17;4.10;;;7.40;91.10;;;;;;5090755;28;20028;-87
2023/12/20 04:14:32;;;;;;;12.75;3.05;;;7.40;91.10;;;;;;5113871;27;20046;-87
2023/12/20 04:16:58;;;;;;;24.77;4.43;;;7.40;91.10;;;;;;5092715;27;20051;-88
2023/12/20 04:19:24;;;;;;;18.98;3.85;;;7.40;91.10;;;;;;5088756;28;20040;-87
2023/12/20 04:21:49;;;;;;;22.55;5.40;;;7.40;91.10;;;;;;5092259;27;20036;-86
2023/12/20 04:24:15;;;;;;;19.15;4.10;;;7.40;91.10;;;;;;5094379;27;20096;-89
2023/12/20 04:26:41;;;;;;;16.15;3.17;;;7.50;91.10;;;;;;5090760;27;20074;-88
2023/12/20 04:29:06;;;;;;;20.70;4.38;;;7.40;91.10;;;;;;5090846;27;20032;-88
2023/12/20 04:31:32;;;;;;;20.35;4.18;;;7.40;91.10;;;;;;5092722;27;20095;-90
2023/12/20 04:33:57;;;;;;;15.85;3.90;;;7.50;91.10;;;;;;5094914;27;20031;-88
2023/12/20 04:36:25;;;;;;;20.63;3.72;;;7.50;91.20;;;;;;5093116;28;20039;-89
2023/12/20 04:38:50;;;;;;;21.27;4.60;;;7.50;91.20;;;;;;5100966;27;20425;-89
2023/12/20 04:41:18;;;;;;;16.98;3.45;;;7.50;91.40;;;;;;5089483;27;20043;-89
2023/12/20 04:43:44;;;;;;;20.00;4.25;;;7.50;91.20;;;;;;5090231;27;20071;-88
2023/12/20 04:46:10;;;;;;;19.52;3.50;;;7.50;91.20;;;;;;5096125;27;20046;-88
2023/12/20 04:48:36;;;;;;;21.80;4.30;;;7.50;91.20;;;;;;5091883;27;20035;-88
2023/12/20 04:51:02;;;;;;;17.15;3.72;;;7.50;91.20;;;;;;5089668;27;20040;-88
2023/12/20 04:53:27;;;;;;;20.15;3.50;;;7.50;91.20;;;;;;5096482;27;20386;-88
2023/12/20 04:55:53;;;;;;;20.50;3.30;;;7.50;91.20;;;;;;5096691;27;20027;-88
2023/12/20 04:58:19;;;;;;;18.73;4.20;;;7.50;91.20;;;;;;5090463;27;20157;-89
2023/12/20 05:00:44;;;;;;;25.05;4.50;;;7.60;91.30;;;;;;5092183;27;20040;-90
2023/12/20 05:03:10;;;;;;;20.90;3.60;;;7.50;91.20;;;;;;5090621;28;20036;-89
2023/12/20 05:05:36;;;;;;;21.50;4.25;;;7.60;91.20;;;;;;5094314;27;20144;-90
2023/12/20 05:08:02;;;;;;;16.73;3.53;;;7.60;91.30;;;;;;5088227;28;20039;-89
2023/12/20 05:10:27;;;;;;;18.35;3.75;;;7.60;91.30;;;;;;5091693;27;20062;-89
2023/12/20 05:12:53;;;;;;;18.10;4.22;;;7.60;91.30;;;;;;5093674;27;20091;-89
2023/12/20 05:15:19;;;;;;;24.38;4.13;;;7.60;91.30;;;;;;5092455;27;20042;-90
2023/12/20 05:17:45;;;;;;;21.48;5.10;;;7.60;91.30;;;;;;5091201;27;20245;-89
2023/12/20 05:20:10;;;;;;;25.23;4.57;;;7.60;91.30;;;;;;5091810;27;20379;-89
2023/12/20 05:22:36;;;;;;;19.02;4.75;;;7.70;91.30;;;;;;5092299;28;20122;-88
2023/12/20 05:25:02;;;;;;;21.23;4.30;;;7.70;91.20;;;;;;5090138;27;20036;-89
2023/12/20 05:27:27;;;;;;;22.00;4.28;;;7.70;91.20;;;;;;5108090;28;20035;-88
2023/12/20 05:29:57;;;;;;;17.45;3.38;;;7.70;91.20;;;;;;5092137;28;20035;-88
2023/12/20 05:32:23;;;;;;;20.88;3.53;;;7.70;91.20;;;;;;5090840;28;20107;-88
2023/12/20 05:34:49;;;;;;;16.27;3.15;;;7.70;91.20;;;;;;5099738;28;20039;-88
2023/12/20 05:37:14;;;;;;;16.90;3.63;;;7.70;91.20;;;;;;5095527;28;20438;-89
2023/12/20 05:39:40;;;;;;;20.48;3.97;;;7.70;91.10;;;;;;5094443;28;20130;-90
2023/12/20 05:42:06;;;;;;;26.90;5.38;;;7.70;91.10;;;;;;5087660;28;20463;-87
2023/12/20 05:44:31;;;;;;;18.00;3.22;;;7.80;91.30;;;;;;5088732;28;20032;-87
2023/12/20 05:46:57;;;;;;;23.00;3.90;;;7.80;91.10;;;;;;5089639;28;20031;-87
2023/12/20 05:49:23;;;;;;;19.10;4.82;;;7.80;91.10;;;;;;5088969;28;20031;-87
2023/12/20 05:51:48;;;;;;;19.58;4.43;;;7.80;91.00;;;;;;5092882;28;20170;-87
2023/12/20 05:54:14;;;;;;;15.15;3.45;;;7.80;91.00;;;;;;5091730;28;20111;-87
2023/12/20 05:56:40;;;;;;;21.40;4.03;;;7.80;91.00;;;;;;5089280;28;20031;-87
2023/12/20 05:59:05;;;;;;;16.95;3.97;;;7.80;90.90;;;;;;5089653;28;20092;-87
2023/12/20 06:01:31;;;;;;;15.60;3.53;;;7.80;90.90;;;;;;5111582;28;20393;-87
2023/12/20 06:03:56;;;;;;;21.15;4.15;;;8.60;91.10;;;;;;5089821;28;20091;-87
2023/12/20 06:06:23;;;;;;;20.50;4.30;;;7.80;90.90;;;;;;5092640;28;20042;-87
2023/12/20 06:08:48;;;;;;;18.55;3.20;;;7.90;90.90;;;;;;5089450;28;20412;-87
2023/12/20 06:11:14;;;;;;;16.17;3.70;;;8.10;90.90;;;;;;5087692;28;20027;-87
2023/12/20 06:13:40;;;;;;;22.92;4.20;;;7.90;90.90;;;;;;5103558;28;20042;-87
2023/12/20 06:16:07;;;;;;;18.90;3.65;;;7.90;90.80;;;;;;5084706;28;20397;-87
2023/12/20 06:18:32;;;;;;;18.05;3.67;;;8.00;90.80;;;;;;5093621;28;20475;-87
2023/12/20 06:20:58;;;;;;;18.50;3.65;;;7.90;90.80;;;;;;5090379;28;20114;-88
2023/12/20 06:23:23;;;;;;;19.23;4.60;;;7.90;90.80;;;;;;5090834;28;20436;-87
2023/12/20 06:25:49;;;;;;;19.27;2.88;;;7.90;90.80;;;;;;5090884;28;20039;-86
2023/12/20 06:28:15;;;;;;;15.18;3.20;;;7.90;90.80;;;;;;5091733;28;20425;-87
2023/12/20 06:30:40;;;;;;;19.88;3.45;;;7.90;90.80;;;;;;5109318;27;20036;-87
2023/12/20 06:33:06;;;;;;;18.75;3.88;;;7.90;90.70;;;;;;5098167;27;20052;-87
2023/12/20 06:35:32;;;;;;;15.52;3.25;;;8.00;90.80;;;;;;5097709;27;20036;-85
2023/12/20 06:37:58;;;;;;;19.20;4.05;;;8.00;90.80;;;;;;5098752;28;20077;-86
2023/12/20 06:40:23;;;;;;;17.50;4.22;;;7.90;90.80;;;;;;5098989;27;20035;-86
2023/12/20 06:42:49;;;;;;;14.18;3.05;;;8.00;90.80;;;;;;5118725;27;20035;-86
2023/12/20 06:45:14;;;;;;;19.02;3.70;;;8.50;90.90;;;;;;5099297;27;20078;-87
2023/12/20 06:47:40;;;;;;;20.67;4.85;;;8.00;90.80;;;;;;5109255;27;20493;-88
2023/12/20 06:50:08;;;;;;;24.63;4.00;;;8.60;90.90;;;;;;5097050;27;20049;-87
2023/12/20 06:52:34;;;;;;;21.13;4.15;;;8.00;90.70;;;;;;5092295;27;20474;-87
2023/12/20 06:55:00;;;;;;;24.20;5.10;;;8.00;90.70;;;;;;5093708;27;20043;-87
2023/12/20 06:57:26;;;;;;;21.27;4.25;;;8.00;90.70;;;;;;5096789;27;20039;-86
2023/12/20 06:59:52;;;;;;;14.52;3.95;;;8.00;90.60;;;;;;5095514;27;20042;-91
2023/12/20 07:02:17;;;;;;;17.58;4.78;;;8.10;90.70;;;;;;5115808;27;20035;-90
2023/12/20 07:04:43;;;;;;;20.23;4.22;;;8.10;90.60;;;;;;5093837;27;20062;-90
2023/12/20 07:07:09;;;;;;;21.33;4.25;;;8.10;90.60;;;;;;5110599;27;20035;-89
2023/12/20 07:09:34;;;;;;;16.98;4.32;;;8.10;90.60;;;;;;5090099;27;20046;-90
2023/12/20 07:12:00;;;;;;;22.02;4.43;;;8.10;90.60;;;;;;5090029;27;20031;-90
2023/12/20 07:14:26;;;;;;;19.75;4.07;;;8.10;90.60;;;;;;5094167;27;20035;-90
2023/12/20 07:16:51;;;;;;;16.73;3.60;;;8.10;90.60;;;;;;5093897;27;20062;-91
2023/12/20 07:19:17;;;;;;;18.52;3.95;;;8.10;90.60;;;;;;5090342;27;20059;-90
2023/12/20 07:21:42;;;;;;;19.08;4.35;;;8.10;90.60;;;;;;5092679;27;20069;-90
2023/12/20 07:24:08;;;;;;;14.50;3.60;;;8.20;90.60;;;;;;5093303;28;20455;-90
2023/12/20 07:26:35;;;;;;;23.52;4.32;;;8.10;90.50;;;;;;5093146;27;20039;-90
2023/12/20 07:29:00;;;;;;;20.27;4.50;;;8.10;90.50;;;;;;5091410;27;20031;-90
2023/12/20 07:31:26;;;;;;;22.27;4.20;;;8.20;90.50;;;;;;5093784;27;20028;-89
2023/12/20 07:33:51;;;;;;;15.25;3.40;;;8.40;90.50;;;;;;5090684;27;20090;-90
2023/12/20 07:36:17;;;;;;;26.05;4.55;;;8.20;90.40;;;;;;5091581;27;20034;-91
2023/12/20 07:38:44;;;;;;;16.25;3.55;;;8.20;90.40;;;;;;5085143;28;20048;-90
2023/12/20 07:41:13;;;;;;;13.95;3.78;;;8.20;90.40;;;;;;5096083;27;20039;-90
2023/12/20 07:43:38;;;;;;;14.45;3.60;;;8.20;90.40;;;;;;5090160;28;20171;-89
2023/12/20 07:46:06;;;;;;;15.30;4.20;;;8.80;90.50;;;;;;5093513;27;20047;-90
2023/12/20 07:48:31;;;;;;;21.83;4.35;;;8.20;90.30;;;;;;5096501;27;20084;-89
2023/12/20 07:50:57;;;;;;;21.35;4.20;;;8.20;90.30;;;;;;5101496;27;20035;-89
2023/12/20 07:53:22;;;;;;;19.05;4.80;;;8.20;90.30;;;;;;5091539;27;20039;-89
2023/12/20 07:55:48;;;;;;;19.13;3.78;;;8.20;90.30;;;;;;5089497;27;20126;-91
2023/12/20 07:58:14;;;;;;;24.70;4.68;;;8.50;90.40;;;;;;5092204;27;20096;-90
2023/12/20 08:00:39;;;;;;;17.67;4.18;;;8.30;90.30;;;;;;5089732;27;20043;-90
2023/12/20 08:03:05;;;;;;;19.63;4.38;;;8.30;90.30;;;;;;5093459;27;20393;-89
2023/12/20 08:05:30;;;;;;;13.13;3.42;;;8.30;90.20;;;;;;5090498;27;20035;-89
2023/12/20 08:07:56;;;;;;;21.05;4.00;;;8.30;90.20;;;;;;5089774;27;20058;-90
2023/12/20 08:10:21;;;;;;;16.75;3.67;;;8.30;90.20;;;;;;5091323;28;20031;-90
2023/12/20 08:12:47;;;;;;;24.73;4.72;;;8.30;90.20;;;;;;5092517;27;20035;-90
2023/12/20 08:15:14;;;;;;;22.17;5.18;;;8.30;90.20;;;;;;5093974;27;20094;-90
2023/12/20 08:17:39;;;;;;;16.17;4.80;;;8.30;90.20;;;;;;5099666;27;20431;-90
2023/12/20 08:20:06;;;;;;;24.38;5.30;;;8.30;90.10;;;;;;5092983;28;20035;-89
2023/12/20 08:22:31;;;;;;;22.80;4.68;;;8.40;90.10;;;;;;5088888;28;20035;-90
2023/12/20 08:24:57;;;;;;;22.35;4.28;;;8.30;90.10;;;;;;5093227;27;20032;-89
2023/12/20 08:27:22;;;;;;;22.63;4.95;;;8.40;90.10;;;;;;5095043;27;20031;-89
2023/12/20 08:29:49;;;;;;;19.02;3.47;;;9.10;90.30;;;;;;5092529;28;20059;-90
2023/12/20 08:32:15;;;;;;;19.13;3.53;;;8.40;90.10;;;;;;5109841;28;20031;-90
2023/12/20 08:34:42;;;;;;;17.02;3.53;;;8.40;90.10;;;;;;5091728;27;20529;-90
2023/12/20 08:37:07;;;;;;;29.02;5.18;;;8.40;90.10;;;;;;5089593;27;20040;-89
2023/12/20 08:39:33;;;;;;;20.48;3.42;;;8.40;90.00;;;;;;5089328;27;20031;-91
2023/12/20 08:41:59;;;;;;;17.45;4.22;;;8.40;90.00;;;;;;5091272;28;20031;-90
2023/12/20 08:44:25;;;;;;;17.65;4.18;;;8.40;90.00;;;;;;5092895;28;20100;-87
2023/12/20 08:46:50;;;;;;;23.33;5.10;;;8.40;90.00;;;;;;5093602;27;20488;-87
2023/12/20 08:49:16;;;;;;;19.20;4.47;;;8.40;90.00;;;;;;5088528;27;20110;-87
2023/12/20 08:51:41;;;;;;;22.27;4.97;;;8.40;90.00;;;;;;5108785;27;20035;-87
2023/12/20 08:54:07;;;;;;;17.20;3.72;;;8.50;90.10;;;;;;5088930;27;20031;-87
2023/12/20 08:56:34;;;;;;;19.98;5.10;;;8.40;90.00;;;;;;5090009;27;20166;-88
2023/12/20 08:58:59;;;;;;;22.17;4.03;;;8.40;90.00;;;;;;5085086;27;20031;-87
2023/12/20 09:01:25;;;;;;;17.52;3.85;;;8.40;90.00;;;;;;5096571;27;20095;-87
2023/12/20 09:03:50;;;;;;;22.83;4.32;;;9.10;90.20;;;;;;5087287;28;20039;-86
2023/12/20 09:06:16;;;;;;;16.45;3.53;;;8.40;90.00;;;;;;5090400;27;20169;-87
2023/12/20 09:08:42;;;;;;;16.73;3.67;;;8.40;90.00;;;;;;5088857;27;20039;-86
2023/12/20 09:11:07;;;;;;;23.27;3.83;;;8.50;90.00;;;;;;5091139;27;20039;-86
2023/12/20 09:13:33;;;;;;;22.05;4.32;;;8.50;90.10;;;;;;5094265;27;20114;-87
2023/12/20 09:15:59;;;;;;;14.40;3.08;;;8.50;89.90;;;;;;5095550;27;20481;-87
2023/12/20 09:18:24;;;;;;;21.40;4.78;;;8.50;89.70;;;;;;5091963;28;20031;-86
2023/12/20 09:20:50;;;;;;;16.38;3.88;;;8.50;89.70;;;;;;5105963;28;20035;-86
2023/12/20 09:23:17;;;;;;;18.90;4.20;;;8.50;89.60;;;;;;5089315;27;20038;-87
2023/12/20 09:25:43;;;;;;;16.23;3.15;;;9.30;90.00;;;;;;5088748;27;20040;-86
2023/12/20 09:28:08;;;;;;;19.65;4.32;;;8.50;89.60;;;;;;5104160;28;20081;-86
2023/12/20 09:30:35;;;;;;;22.50;4.20;;;8.50;89.70;;;;;;5088107;28;20466;-86
2023/12/20 09:33:01;;;;;;;23.08;4.53;;;8.60;89.90;;;;;;5110014;28;20109;-86
2023/12/20 09:35:26;;;;;;;16.80;5.05;;;8.60;90.00;;;;;;5106273;28;20866;-86
2023/12/20 09:37:52;;;;;;;21.52;4.65;;;8.60;89.80;;;;;;5106630;28;20438;-87
2023/12/20 09:40:19;;;;;;;24.85;4.63;;;8.70;89.70;;;;;;5106455;28;20039;-86
2023/12/20 09:43:04;;;;;;;21.35;4.72;;;9.20;89.90;;;;;;5085966;28;20130;-86
2023/12/20 09:45:31;;;;;;;20.63;4.10;;;8.70;89.40;;;;;;5104427;28;20039;-86
2023/12/20 09:47:58;;;;;;;11.20;2.40;;;8.70;90.00;;;;;;5091450;28;20427;-87
2023/12/20 09:50:23;;;;;;;19.08;3.50;;;8.90;89.40;;;;;;5105022;28;20042;-87
2023/12/20 09:52:51;;;;;;;10.93;2.17;;;9.10;88.90;;;;;;5095491;28;20028;-87
2023/12/20 09:55:20;;;;;;;16.08;3.47;;;8.80;88.10;;;;;;5095449;28;20541;-87
2023/12/20 09:57:46;;;;;;;10.25;2.00;;;8.70;87.70;;;;;;5100661;28;20047;-87
2023/12/20 10:00:13;;;;;;;10.50;2.80;;;8.60;87.60;;;;;;5096502;28;20036;-88
2023/12/20 10:02:46;;;;;;;8.10;2.58;;;8.60;87.70;;;;;;5114325;27;20042;-87
2023/12/20 10:05:20;;;;;;;10.07;2.08;;;8.50;87.70;;;;;;5104353;27;20036;-87
2023/12/20 10:07:46;;;;;;;9.55;2.35;;;8.40;87.80;;;;;;5102422;27;20031;-87
2023/12/20 10:10:13;;;;;;;9.38;1.58;;;8.30;87.80;;;;;;5098112;27;20035;-87
2023/12/20 10:12:38;;;;;;;11.75;2.47;;;8.70;88.00;;;;;;5097222;27;20031;-87
2023/12/20 10:15:05;;;;;;;10.75;2.05;;;8.30;87.70;;;;;;5098980;27;20081;-87
2023/12/20 10:17:31;;;;;;;7.72;1.60;;;8.20;87.70;;;;;;5097657;27;20031;-87
2023/12/20 10:19:58;;;;;;;7.90;1.70;;;8.20;87.80;;;;;;5099566;27;20038;-87
2023/12/20 10:22:24;;;;;;;10.98;2.17;;;8.20;87.90;;;;;;5092213;28;20035;-87
2023/12/20 10:24:49;;;;;;;10.85;1.95;;;8.10;87.90;;;;;;5094460;27;20042;-87
2023/12/20 10:27:19;;;;;;;9.95;1.77;;;8.80;88.20;;;;;;5092120;27;20410;-87
2023/12/20 10:29:45;;;;;;;10.32;1.90;;;8.10;87.70;;;;;;5093898;27;20055;-87
2023/12/20 10:32:23;;;;;;;9.05;1.58;;;8.10;87.70;;;;;;5093931;27;20043;-86
2023/12/20 10:34:50;;;;;;;10.43;2.03;;;8.00;87.60;;;;;;5097040;27;20043;-87
2023/12/20 10:37:15;;;;;;;6.10;1.27;;;8.00;87.70;;;;;;5092250;27;20519;-87
2023/12/20 10:39:43;;;;;;;13.25;1.75;;;7.90;87.60;;;;;;5089114;27;20043;-87
2023/12/20 10:42:11;;;;;;;9.00;1.63;;;7.90;87.70;;;;;;5095943;27;20062;-87
2023/12/20 10:44:36;;;;;;;11.10;1.48;;;7.90;87.80;;;;;;5115971;27;20032;-86
2023/12/20 10:47:04;;;;;;;6.45;1.35;;;7.80;88.00;;;;;;5092882;27;20028;-87
2023/12/20 10:49:31;;;;;;;6.82;1.90;;;7.90;88.30;;;;;;5110518;27;20031;-86
2023/12/20 10:51:59;;;;;;;8.55;1.42;;;8.30;88.80;;;;;;5109417;27;20039;-87
2023/12/20 10:54:25;;;;;;;14.48;2.67;;;7.80;88.70;;;;;;5118744;27;20512;-87
2023/12/20 10:56:52;;;;;;;9.95;2.08;;;7.80;88.70;;;;;;5093754;27;20044;-86
2023/12/20 10:59:20;;;;;;;10.88;1.45;;;7.80;88.80;;;;;;5097727;27;20035;-86
2023/12/20 11:01:48;;;;;;;6.72;1.27;;;7.80;88.90;;;;;;5112753;27;20091;-87
2023/12/20 11:04:28;;;;;;;8.35;1.38;;;7.80;89.00;;;;;;5096188;27;20495;-87
2023/12/20 11:07:16;;;;;;;7.55;1.60;;;7.80;89.10;;;;;;5094976;27;20027;-86
2023/12/20 11:09:49;;;;;;;8.30;1.58;;;7.80;89.40;;;;;;5110867;27;20485;-86
2023/12/20 11:12:41;;;;;;;8.27;1.67;;;7.80;89.60;;;;;;5110367;27;20390;-87
2023/12/20 11:15:07;;;;;;;10.50;1.77;;;7.80;89.70;;;;;;5119783;27;20393;-87
2023/12/20 11:17:33;;;;;;;9.05;2.20;;;7.80;90.00;;;;;;5090655;27;20046;-86
2023/12/20 11:20:01;;;;;;;8.05;1.77;;;7.80;90.00;;;;;;5098594;27;20031;-86
2023/12/20 11:22:29;;;;;;;13.95;2.25;;;7.80;90.10;;;;;;5091219;27;20039;-86
2023/12/20 11:24:58;;;;;;;12.98;2.00;;;7.80;90.20;;;;;;5092559;27;20072;-86
2023/12/20 11:27:24;;;;;;;7.93;1.80;;;7.90;90.20;;;;;;5094733;27;20416;-87
2023/12/20 11:29:56;;;;;;;10.60;1.88;;;7.90;90.20;;;;;;5095579;27;20035;-86
2023/12/20 11:32:25;;;;;;;12.57;2.03;;;7.90;90.30;;;;;;5096491;28;20057;-86
2023/12/20 11:34:53;;;;;;;8.27;2.38;;;8.70;90.50;;;;;;5100780;27;20489;-86
2023/12/20 11:37:20;;;;;;;7.38;1.77;;;7.90;90.30;;;;;;5113345;27;20490;-87
2023/12/20 11:39:55;;;;;;;8.07;1.52;;;7.90;90.30;;;;;;5103403;27;20074;-86
2023/12/20 11:42:20;;;;;;;12.15;2.15;;;7.90;90.30;;;;;;5096659;27;20067;-87
2023/12/20 11:44:46;;;;;;;5.93;1.40;;;7.90;90.30;;;;;;5098924;27;20038;-87
2023/12/20 11:47:13;;;;;;;7.38;1.52;;;8.80;90.50;;;;;;5097268;27;20038;-87
2023/12/20 11:49:40;;;;;;;11.43;2.08;;;8.00;90.30;;;;;;5089111;27;20035;-87
2023/12/20 11:52:05;;;;;;;7.05;1.33;;;8.00;90.30;;;;;;5094715;27;20027;-87
2023/12/20 11:54:31;;;;;;;9.43;1.73;;;8.00;90.30;;;;;;5110000;27;20031;-87
2023/12/20 11:56:57;;;;;;;13.07;2.75;;;8.00;90.30;;;;;;5089416;27;20410;-87
2023/12/20 11:59:23;;;;;;;4.85;1.48;;;8.00;90.30;;;;;;5091930;27;20122;-88
2023/12/20 12:01:52;;;;;;;5.22;1.30;;;8.10;90.30;;;;;;5090764;27;20039;-87
2023/12/20 12:04:18;;;;;;;5.82;1.20;;;8.10;90.30;;;;;;5095683;27;20030;-87
2023/12/20 12:06:45;;;;;;;9.10;1.88;;;8.10;90.20;;;;;;5088656;27;20093;-87
2023/12/20 12:09:10;;;;;;;5.47;1.35;;;8.10;90.20;;;;;;5091724;28;20066;-87
2023/12/20 12:11:36;;;;;;;4.70;1.13;;;8.10;90.20;;;;;;5085818;27;20063;-87
2023/12/20 12:14:02;;;;;;;11.68;1.75;;;8.80;90.30;;;;;;5093027;27;20038;-88
2023/12/20 12:16:27;;;;;;;9.02;1.60;;;8.10;90.10;;;;;;5093541;27;20045;-85
2023/12/20 12:18:57;;;;;;;9.35;2.13;;;8.10;90.10;;;;;;5094785;27;20031;-87
2023/12/20 12:21:23;;;;;;;7.18;2.30;;;8.10;90.00;;;;;;5097677;27;20079;-86
2023/12/20 12:23:49;;;;;;;10.32;2.33;;;8.10;89.90;;;;;;5109147;27;20057;-87
2023/12/20 12:26:14;;;;;;;7.07;1.58;;;8.10;89.90;;;;;;5088549;28;20498;-86
2023/12/20 12:28:41;;;;;;;10.85;1.88;;;8.10;89.90;;;;;;5092573;27;20079;-86
2023/12/20 12:31:07;;;;;;;9.13;2.10;;;8.10;89.90;;;;;;5108003;27;20038;-86
2023/12/20 12:33:33;;;;;;;7.90;1.40;;;8.10;89.80;;;;;;5094840;27;20031;-86
2023/12/20 12:36:00;;;;;;;10.85;1.50;;;8.10;89.60;;;;;;5108886;27;20164;-87
2023/12/20 12:38:27;;;;;;;8.68;1.70;;;8.10;89.60;;;;;;5103348;27;20031;-87
2023/12/20 12:40:53;;;;;;;10.70;1.80;;;8.10;89.70;;;;;;5090587;27;20039;-87
2023/12/20 12:43:19;;;;;;;7.78;1.58;;;8.10;89.60;;;;;;5103343;27;20202;-92